sensor_id;sensor_type;location;lat;lon;timestamp;P1;durP1;ratioP1;P2;durP2;ratioP2
59876;SDS011;45749;51.140;17.184;2023-04-24T00:00:06;9.25;;;6.50;;
59876;SDS011;45749;51.140;17.184;2023-04-24T00:02:35;8.10;;;6.47;;
59876;SDS011;45749;51.140;17.184;2023-04-24T00:05:07;8.25;;;6.88;;
59876;SDS011;45749;51.140;17.184;2023-04-24T00:07:33;13.93;;;8.38;;
59876;SDS011;45749;51.140;17.184;2023-04-24T00:10:01;8.57;;;7.13;;
59876;SDS011;45749;51.140;17.184;2023-04-24T00:12:26;10.77;;;6.95;;
59876;SDS011;45749;51.140;17.184;2023-04-24T00:14:52;8.73;;;7.00;;
59876;SDS011;45749;51.140;17.184;2023-04-24T00:17:18;8.98;;;6.55;;
59876;SDS011;45749;51.140;17.184;2023-04-24T00:19:46;11.10;;;7.10;;
59876;SDS011;45749;51.140;17.184;2023-04-24T00:22:12;9.98;;;7.68;;
59876;SDS011;45749;51.140;17.184;2023-04-24T00:24:38;11.30;;;8.05;;
59876;SDS011;45749;51.140;17.184;2023-04-24T00:27:04;10.35;;;7.65;;
59876;SDS011;45749;51.140;17.184;2023-04-24T00:29:29;10.90;;;8.45;;
59876;SDS011;45749;51.140;17.184;2023-04-24T00:31:55;9.75;;;7.60;;
59876;SDS011;45749;51.140;17.184;2023-04-24T00:34:20;10.52;;;7.72;;
59876;SDS011;45749;51.140;17.184;2023-04-24T00:36:46;11.23;;;7.80;;
59876;SDS011;45749;51.140;17.184;2023-04-24T00:39:13;9.77;;;7.63;;
59876;SDS011;45749;51.140;17.184;2023-04-24T00:41:39;9.40;;;7.65;;
59876;SDS011;45749;51.140;17.184;2023-04-24T00:44:05;9.25;;;7.38;;
59876;SDS011;45749;51.140;17.184;2023-04-24T00:46:30;10.32;;;7.18;;
59876;SDS011;45749;51.140;17.184;2023-04-24T00:48:56;10.32;;;8.15;;
59876;SDS011;45749;51.140;17.184;2023-04-24T00:51:23;10.70;;;8.18;;
59876;SDS011;45749;51.140;17.184;2023-04-24T00:53:49;13.30;;;8.38;;
59876;SDS011;45749;51.140;17.184;2023-04-24T00:56:15;9.57;;;8.23;;
59876;SDS011;45749;51.140;17.184;2023-04-24T00:58:43;14.77;;;9.13;;
59876;SDS011;45749;51.140;17.184;2023-04-24T01:01:09;11.75;;;9.20;;
59876;SDS011;45749;51.140;17.184;2023-04-24T01:03:36;12.45;;;9.50;;
59876;SDS011;45749;51.140;17.184;2023-04-24T01:06:03;11.38;;;8.88;;
59876;SDS011;45749;51.140;17.184;2023-04-24T01:08:29;12.73;;;9.23;;
59876;SDS011;45749;51.140;17.184;2023-04-24T01:10:55;11.32;;;9.18;;
59876;SDS011;45749;51.140;17.184;2023-04-24T01:13:22;12.68;;;9.15;;
59876;SDS011;45749;51.140;17.184;2023-04-24T01:15:48;13.00;;;10.02;;
59876;SDS011;45749;51.140;17.184;2023-04-24T01:18:13;11.68;;;7.93;;
59876;SDS011;45749;51.140;17.184;2023-04-24T01:20:40;11.63;;;9.25;;
59876;SDS011;45749;51.140;17.184;2023-04-24T01:23:07;11.02;;;9.07;;
59876;SDS011;45749;51.140;17.184;2023-04-24T01:25:32;10.27;;;8.93;;
59876;SDS011;45749;51.140;17.184;2023-04-24T01:27:58;12.07;;;9.35;;
59876;SDS011;45749;51.140;17.184;2023-04-24T01:30:24;11.30;;;9.70;;
59876;SDS011;45749;51.140;17.184;2023-04-24T01:32:51;10.48;;;9.38;;
59876;SDS011;45749;51.140;17.184;2023-04-24T01:35:16;12.70;;;10.38;;
59876;SDS011;45749;51.140;17.184;2023-04-24T01:37:42;11.82;;;9.75;;
59876;SDS011;45749;51.140;17.184;2023-04-24T01:40:08;12.00;;;9.02;;
59876;SDS011;45749;51.140;17.184;2023-04-24T01:42:34;12.55;;;9.88;;
59876;SDS011;45749;51.140;17.184;2023-04-24T01:44:59;12.63;;;9.50;;
59876;SDS011;45749;51.140;17.184;2023-04-24T01:47:26;12.02;;;9.73;;
59876;SDS011;45749;51.140;17.184;2023-04-24T01:49:52;15.15;;;11.23;;
59876;SDS011;45749;51.140;17.184;2023-04-24T01:52:18;13.38;;;11.00;;
59876;SDS011;45749;51.140;17.184;2023-04-24T01:54:43;16.65;;;11.43;;
59876;SDS011;45749;51.140;17.184;2023-04-24T01:57:09;11.75;;;9.48;;
59876;SDS011;45749;51.140;17.184;2023-04-24T01:59:35;14.93;;;9.82;;
59876;SDS011;45749;51.140;17.184;2023-04-24T02:02:01;13.07;;;10.70;;
59876;SDS011;45749;51.140;17.184;2023-04-24T02:04:27;13.38;;;10.88;;
59876;SDS011;45749;51.140;17.184;2023-04-24T02:06:53;15.13;;;11.32;;
59876;SDS011;45749;51.140;17.184;2023-04-24T02:09:18;15.20;;;11.35;;
59876;SDS011;45749;51.140;17.184;2023-04-24T02:11:45;13.48;;;11.30;;
59876;SDS011;45749;51.140;17.184;2023-04-24T02:14:11;13.15;;;10.18;;
59876;SDS011;45749;51.140;17.184;2023-04-24T02:16:36;15.75;;;10.27;;
59876;SDS011;45749;51.140;17.184;2023-04-24T02:19:02;14.38;;;11.20;;
59876;SDS011;45749;51.140;17.184;2023-04-24T02:21:28;12.82;;;11.13;;
59876;SDS011;45749;51.140;17.184;2023-04-24T02:23:53;14.57;;;10.65;;
59876;SDS011;45749;51.140;17.184;2023-04-24T02:26:19;13.55;;;11.48;;
59876;SDS011;45749;51.140;17.184;2023-04-24T02:28:45;14.13;;;12.20;;
59876;SDS011;45749;51.140;17.184;2023-04-24T02:31:10;16.33;;;11.07;;
59876;SDS011;45749;51.140;17.184;2023-04-24T02:33:35;12.70;;;10.90;;
59876;SDS011;45749;51.140;17.184;2023-04-24T02:36:01;12.23;;;10.60;;
59876;SDS011;45749;51.140;17.184;2023-04-24T02:38:28;12.45;;;10.30;;
59876;SDS011;45749;51.140;17.184;2023-04-24T02:40:53;12.68;;;10.85;;
59876;SDS011;45749;51.140;17.184;2023-04-24T02:43:19;14.43;;;10.25;;
59876;SDS011;45749;51.140;17.184;2023-04-24T02:45:45;10.23;;;9.15;;
59876;SDS011;45749;51.140;17.184;2023-04-24T02:48:10;14.27;;;11.48;;
59876;SDS011;45749;51.140;17.184;2023-04-24T02:50:36;12.95;;;10.80;;
59876;SDS011;45749;51.140;17.184;2023-04-24T02:53:01;12.88;;;9.73;;
59876;SDS011;45749;51.140;17.184;2023-04-24T02:55:27;11.65;;;10.32;;
59876;SDS011;45749;51.140;17.184;2023-04-24T02:57:52;13.18;;;8.85;;
59876;SDS011;45749;51.140;17.184;2023-04-24T03:00:18;12.57;;;10.23;;
59876;SDS011;45749;51.140;17.184;2023-04-24T03:02:44;11.10;;;9.30;;
59876;SDS011;45749;51.140;17.184;2023-04-24T03:05:09;12.80;;;10.27;;
59876;SDS011;45749;51.140;17.184;2023-04-24T03:07:36;14.07;;;11.38;;
59876;SDS011;45749;51.140;17.184;2023-04-24T03:10:02;13.35;;;10.93;;
59876;SDS011;45749;51.140;17.184;2023-04-24T03:12:28;12.82;;;10.25;;
59876;SDS011;45749;51.140;17.184;2023-04-24T03:14:53;12.68;;;10.70;;
59876;SDS011;45749;51.140;17.184;2023-04-24T03:17:19;14.15;;;10.48;;
59876;SDS011;45749;51.140;17.184;2023-04-24T03:19:44;16.00;;;11.93;;
59876;SDS011;45749;51.140;17.184;2023-04-24T03:22:10;14.18;;;11.00;;
59876;SDS011;45749;51.140;17.184;2023-04-24T03:24:36;13.77;;;11.10;;
59876;SDS011;45749;51.140;17.184;2023-04-24T03:27:01;12.45;;;10.20;;
59876;SDS011;45749;51.140;17.184;2023-04-24T03:29:27;12.40;;;9.98;;
59876;SDS011;45749;51.140;17.184;2023-04-24T03:31:52;12.05;;;9.40;;
59876;SDS011;45749;51.140;17.184;2023-04-24T03:34:17;13.05;;;10.43;;
59876;SDS011;45749;51.140;17.184;2023-04-24T03:36:43;15.07;;;9.60;;
59876;SDS011;45749;51.140;17.184;2023-04-24T03:39:08;13.18;;;9.82;;
59876;SDS011;45749;51.140;17.184;2023-04-24T03:41:34;13.63;;;8.95;;
59876;SDS011;45749;51.140;17.184;2023-04-24T03:43:59;14.27;;;10.18;;
59876;SDS011;45749;51.140;17.184;2023-04-24T03:46:25;11.30;;;9.88;;
59876;SDS011;45749;51.140;17.184;2023-04-24T03:48:50;12.48;;;10.10;;
59876;SDS011;45749;51.140;17.184;2023-04-24T03:51:16;11.57;;;9.50;;
59876;SDS011;45749;51.140;17.184;2023-04-24T03:53:41;10.10;;;9.07;;
59876;SDS011;45749;51.140;17.184;2023-04-24T03:56:07;10.55;;;8.88;;
59876;SDS011;45749;51.140;17.184;2023-04-24T03:58:32;10.73;;;9.07;;
59876;SDS011;45749;51.140;17.184;2023-04-24T04:00:57;11.65;;;10.45;;
59876;SDS011;45749;51.140;17.184;2023-04-24T04:03:23;12.80;;;10.32;;
59876;SDS011;45749;51.140;17.184;2023-04-24T04:05:50;15.05;;;10.65;;
59876;SDS011;45749;51.140;17.184;2023-04-24T04:08:15;11.93;;;10.02;;
59876;SDS011;45749;51.140;17.184;2023-04-24T04:10:41;10.45;;;9.35;;
59876;SDS011;45749;51.140;17.184;2023-04-24T04:13:06;11.90;;;9.63;;
59876;SDS011;45749;51.140;17.184;2023-04-24T04:15:32;14.25;;;10.35;;
59876;SDS011;45749;51.140;17.184;2023-04-24T04:17:57;15.82;;;11.32;;
59876;SDS011;45749;51.140;17.184;2023-04-24T04:20:23;16.75;;;11.55;;
59876;SDS011;45749;51.140;17.184;2023-04-24T04:22:48;12.35;;;10.77;;
59876;SDS011;45749;51.140;17.184;2023-04-24T04:25:13;14.07;;;10.95;;
59876;SDS011;45749;51.140;17.184;2023-04-24T04:27:39;14.95;;;10.48;;
59876;SDS011;45749;51.140;17.184;2023-04-24T04:30:07;11.10;;;9.57;;
59876;SDS011;45749;51.140;17.184;2023-04-24T04:32:33;12.60;;;10.00;;
59876;SDS011;45749;51.140;17.184;2023-04-24T04:35:00;14.27;;;10.73;;
59876;SDS011;45749;51.140;17.184;2023-04-24T04:37:32;14.63;;;11.15;;
59876;SDS011;45749;51.140;17.184;2023-04-24T04:40:00;24.53;;;11.53;;
59876;SDS011;45749;51.140;17.184;2023-04-24T04:42:31;13.95;;;10.57;;
59876;SDS011;45749;51.140;17.184;2023-04-24T04:44:58;13.00;;;10.77;;
59876;SDS011;45749;51.140;17.184;2023-04-24T04:47:24;12.43;;;11.13;;
59876;SDS011;45749;51.140;17.184;2023-04-24T04:49:51;11.93;;;10.30;;
59876;SDS011;45749;51.140;17.184;2023-04-24T04:52:17;13.18;;;10.45;;
59876;SDS011;45749;51.140;17.184;2023-04-24T04:54:43;12.90;;;10.50;;
59876;SDS011;45749;51.140;17.184;2023-04-24T04:57:09;14.85;;;10.70;;
59876;SDS011;45749;51.140;17.184;2023-04-24T04:59:35;10.00;;;8.85;;
59876;SDS011;45749;51.140;17.184;2023-04-24T05:02:00;12.73;;;10.50;;
59876;SDS011;45749;51.140;17.184;2023-04-24T05:04:26;11.52;;;9.60;;
59876;SDS011;45749;51.140;17.184;2023-04-24T05:06:51;12.75;;;9.63;;
59876;SDS011;45749;51.140;17.184;2023-04-24T05:09:17;13.85;;;10.98;;
59876;SDS011;45749;51.140;17.184;2023-04-24T05:11:43;13.43;;;10.20;;
59876;SDS011;45749;51.140;17.184;2023-04-24T05:14:09;13.18;;;10.15;;
59876;SDS011;45749;51.140;17.184;2023-04-24T05:16:34;12.82;;;9.55;;
59876;SDS011;45749;51.140;17.184;2023-04-24T05:19:00;14.00;;;9.43;;
59876;SDS011;45749;51.140;17.184;2023-04-24T05:21:25;10.55;;;9.45;;
59876;SDS011;45749;51.140;17.184;2023-04-24T05:23:51;13.20;;;9.50;;
59876;SDS011;45749;51.140;17.184;2023-04-24T05:26:17;12.85;;;10.38;;
59876;SDS011;45749;51.140;17.184;2023-04-24T05:28:42;12.13;;;9.88;;
59876;SDS011;45749;51.140;17.184;2023-04-24T05:31:08;12.75;;;9.35;;
59876;SDS011;45749;51.140;17.184;2023-04-24T05:33:33;14.52;;;10.05;;
59876;SDS011;45749;51.140;17.184;2023-04-24T05:35:59;15.40;;;9.40;;
59876;SDS011;45749;51.140;17.184;2023-04-24T05:38:25;13.65;;;10.25;;
59876;SDS011;45749;51.140;17.184;2023-04-24T05:40:50;15.23;;;10.13;;
59876;SDS011;45749;51.140;17.184;2023-04-24T05:43:16;13.93;;;10.82;;
59876;SDS011;45749;51.140;17.184;2023-04-24T05:45:41;11.23;;;9.73;;
59876;SDS011;45749;51.140;17.184;2023-04-24T05:48:06;12.40;;;9.75;;
59876;SDS011;45749;51.140;17.184;2023-04-24T05:50:32;14.90;;;9.80;;
59876;SDS011;45749;51.140;17.184;2023-04-24T05:52:57;11.70;;;9.02;;
59876;SDS011;45749;51.140;17.184;2023-04-24T05:55:24;10.35;;;8.52;;
59876;SDS011;45749;51.140;17.184;2023-04-24T05:57:50;12.32;;;9.45;;
59876;SDS011;45749;51.140;17.184;2023-04-24T06:00:16;13.60;;;8.85;;
59876;SDS011;45749;51.140;17.184;2023-04-24T06:02:44;13.98;;;9.20;;
59876;SDS011;45749;51.140;17.184;2023-04-24T06:05:10;13.80;;;9.07;;
59876;SDS011;45749;51.140;17.184;2023-04-24T06:07:36;12.43;;;9.07;;
59876;SDS011;45749;51.140;17.184;2023-04-24T06:10:01;14.25;;;8.60;;
59876;SDS011;45749;51.140;17.184;2023-04-24T06:12:27;12.38;;;8.63;;
59876;SDS011;45749;51.140;17.184;2023-04-24T06:14:52;10.82;;;8.32;;
59876;SDS011;45749;51.140;17.184;2023-04-24T06:17:19;9.93;;;8.38;;
59876;SDS011;45749;51.140;17.184;2023-04-24T06:19:44;10.77;;;8.77;;
59876;SDS011;45749;51.140;17.184;2023-04-24T06:22:10;10.38;;;8.70;;
59876;SDS011;45749;51.140;17.184;2023-04-24T06:24:35;11.65;;;8.35;;
59876;SDS011;45749;51.140;17.184;2023-04-24T06:27:01;16.17;;;8.32;;
59876;SDS011;45749;51.140;17.184;2023-04-24T06:29:27;11.88;;;7.60;;
59876;SDS011;45749;51.140;17.184;2023-04-24T06:31:52;11.13;;;6.57;;
59876;SDS011;45749;51.140;17.184;2023-04-24T06:34:18;11.30;;;6.80;;
59876;SDS011;45749;51.140;17.184;2023-04-24T06:36:43;9.50;;;6.40;;
59876;SDS011;45749;51.140;17.184;2023-04-24T06:39:11;9.45;;;6.32;;
59876;SDS011;45749;51.140;17.184;2023-04-24T06:41:37;11.75;;;7.07;;
59876;SDS011;45749;51.140;17.184;2023-04-24T06:44:02;9.20;;;6.32;;
59876;SDS011;45749;51.140;17.184;2023-04-24T06:46:28;8.40;;;6.60;;
59876;SDS011;45749;51.140;17.184;2023-04-24T06:48:53;8.38;;;6.28;;
59876;SDS011;45749;51.140;17.184;2023-04-24T06:51:22;10.77;;;5.97;;
59876;SDS011;45749;51.140;17.184;2023-04-24T06:53:48;9.57;;;6.15;;
59876;SDS011;45749;51.140;17.184;2023-04-24T06:56:14;6.97;;;6.15;;
59876;SDS011;45749;51.140;17.184;2023-04-24T06:58:40;10.13;;;6.30;;
59876;SDS011;45749;51.140;17.184;2023-04-24T07:01:06;10.05;;;6.03;;
59876;SDS011;45749;51.140;17.184;2023-04-24T07:03:31;7.70;;;6.38;;
59876;SDS011;45749;51.140;17.184;2023-04-24T07:06:00;13.27;;;7.63;;
59876;SDS011;45749;51.140;17.184;2023-04-24T07:08:25;8.82;;;5.28;;
59876;SDS011;45749;51.140;17.184;2023-04-24T07:10:51;8.05;;;5.18;;
59876;SDS011;45749;51.140;17.184;2023-04-24T07:13:16;8.27;;;5.68;;
59876;SDS011;45749;51.140;17.184;2023-04-24T07:15:45;8.43;;;6.05;;
59876;SDS011;45749;51.140;17.184;2023-04-24T07:18:15;6.85;;;5.40;;
59876;SDS011;45749;51.140;17.184;2023-04-24T07:20:41;7.35;;;5.00;;
59876;SDS011;45749;51.140;17.184;2023-04-24T07:23:07;6.35;;;5.18;;
59876;SDS011;45749;51.140;17.184;2023-04-24T07:25:32;6.75;;;5.78;;
59876;SDS011;45749;51.140;17.184;2023-04-24T07:27:58;7.47;;;5.13;;
59876;SDS011;45749;51.140;17.184;2023-04-24T07:30:24;7.75;;;4.90;;
59876;SDS011;45749;51.140;17.184;2023-04-24T07:32:49;8.52;;;5.53;;
59876;SDS011;45749;51.140;17.184;2023-04-24T07:35:15;6.80;;;4.70;;
59876;SDS011;45749;51.140;17.184;2023-04-24T07:37:40;8.40;;;5.25;;
59876;SDS011;45749;51.140;17.184;2023-04-24T07:40:10;7.93;;;5.10;;
59876;SDS011;45749;51.140;17.184;2023-04-24T07:42:37;9.57;;;4.50;;
59876;SDS011;45749;51.140;17.184;2023-04-24T07:45:03;6.60;;;5.05;;
59876;SDS011;45749;51.140;17.184;2023-04-24T07:47:29;6.38;;;5.28;;
59876;SDS011;45749;51.140;17.184;2023-04-24T07:49:55;6.78;;;4.75;;
59876;SDS011;45749;51.140;17.184;2023-04-24T07:52:21;8.00;;;4.28;;
59876;SDS011;45749;51.140;17.184;2023-04-24T07:54:46;13.27;;;5.03;;
59876;SDS011;45749;51.140;17.184;2023-04-24T07:57:12;7.82;;;4.38;;
59876;SDS011;45749;51.140;17.184;2023-04-24T07:59:40;6.82;;;4.22;;
59876;SDS011;45749;51.140;17.184;2023-04-24T08:02:05;6.68;;;4.53;;
59876;SDS011;45749;51.140;17.184;2023-04-24T08:04:33;7.93;;;5.30;;
59876;SDS011;45749;51.140;17.184;2023-04-24T08:06:58;6.38;;;4.28;;
59876;SDS011;45749;51.140;17.184;2023-04-24T08:09:27;7.05;;;4.00;;
59876;SDS011;45749;51.140;17.184;2023-04-24T08:11:55;7.00;;;4.47;;
59876;SDS011;45749;51.140;17.184;2023-04-24T08:14:21;8.55;;;4.35;;
59876;SDS011;45749;51.140;17.184;2023-04-24T08:16:46;8.95;;;4.75;;
59876;SDS011;45749;51.140;17.184;2023-04-24T08:19:12;8.65;;;4.63;;
59876;SDS011;45749;51.140;17.184;2023-04-24T08:21:37;11.50;;;5.90;;
59876;SDS011;45749;51.140;17.184;2023-04-24T08:24:03;7.35;;;4.40;;
59876;SDS011;45749;51.140;17.184;2023-04-24T08:26:30;6.85;;;4.32;;
59876;SDS011;45749;51.140;17.184;2023-04-24T08:28:56;8.85;;;4.35;;
59876;SDS011;45749;51.140;17.184;2023-04-24T08:31:22;5.60;;;4.63;;
59876;SDS011;45749;51.140;17.184;2023-04-24T08:33:47;5.18;;;4.30;;
59876;SDS011;45749;51.140;17.184;2023-04-24T08:36:13;5.65;;;4.88;;
59876;SDS011;45749;51.140;17.184;2023-04-24T08:38:38;5.43;;;4.57;;
59876;SDS011;45749;51.140;17.184;2023-04-24T08:41:04;8.13;;;4.85;;
59876;SDS011;45749;51.140;17.184;2023-04-24T08:43:30;6.28;;;4.93;;
59876;SDS011;45749;51.140;17.184;2023-04-24T08:45:59;5.80;;;4.20;;
59876;SDS011;45749;51.140;17.184;2023-04-24T08:48:25;5.80;;;5.18;;
59876;SDS011;45749;51.140;17.184;2023-04-24T08:50:51;6.32;;;5.70;;
59876;SDS011;45749;51.140;17.184;2023-04-24T08:53:17;6.88;;;5.90;;
59876;SDS011;45749;51.140;17.184;2023-04-24T08:55:43;6.97;;;5.70;;
59876;SDS011;45749;51.140;17.184;2023-04-24T08:58:12;5.95;;;5.35;;
59876;SDS011;45749;51.140;17.184;2023-04-24T09:00:38;8.77;;;5.78;;
59876;SDS011;45749;51.140;17.184;2023-04-24T09:03:05;7.78;;;5.63;;
59876;SDS011;45749;51.140;17.184;2023-04-24T09:05:31;9.63;;;5.75;;
59876;SDS011;45749;51.140;17.184;2023-04-24T09:07:57;5.65;;;4.97;;
59876;SDS011;45749;51.140;17.184;2023-04-24T09:10:26;6.72;;;5.05;;
59876;SDS011;45749;51.140;17.184;2023-04-24T09:12:55;8.55;;;5.88;;
59876;SDS011;45749;51.140;17.184;2023-04-24T09:15:23;8.93;;;6.47;;
59876;SDS011;45749;51.140;17.184;2023-04-24T09:17:49;6.00;;;5.40;;
59876;SDS011;45749;51.140;17.184;2023-04-24T09:20:14;6.72;;;5.32;;
59876;SDS011;45749;51.140;17.184;2023-04-24T09:22:41;6.22;;;5.43;;
59876;SDS011;45749;51.140;17.184;2023-04-24T09:25:07;8.85;;;5.40;;
59876;SDS011;45749;51.140;17.184;2023-04-24T09:27:34;8.23;;;5.30;;
59876;SDS011;45749;51.140;17.184;2023-04-24T09:30:00;7.00;;;5.40;;
59876;SDS011;45749;51.140;17.184;2023-04-24T09:32:26;7.65;;;5.88;;
59876;SDS011;45749;51.140;17.184;2023-04-24T09:35:08;6.80;;;5.55;;
59876;SDS011;45749;51.140;17.184;2023-04-24T09:37:37;9.00;;;5.88;;
59876;SDS011;45749;51.140;17.184;2023-04-24T09:40:16;7.00;;;5.90;;
59876;SDS011;45749;51.140;17.184;2023-04-24T09:42:44;7.90;;;5.10;;
59876;SDS011;45749;51.140;17.184;2023-04-24T09:45:20;6.53;;;5.25;;
59876;SDS011;45749;51.140;17.184;2023-04-24T09:47:46;8.02;;;5.80;;
59876;SDS011;45749;51.140;17.184;2023-04-24T09:50:18;8.27;;;5.40;;
59876;SDS011;45749;51.140;17.184;2023-04-24T09:52:45;7.00;;;5.65;;
59876;SDS011;45749;51.140;17.184;2023-04-24T09:55:20;7.18;;;4.82;;
59876;SDS011;45749;51.140;17.184;2023-04-24T09:57:55;11.65;;;6.63;;
59876;SDS011;45749;51.140;17.184;2023-04-24T10:00:26;6.82;;;5.75;;
59876;SDS011;45749;51.140;17.184;2023-04-24T10:03:00;7.13;;;5.25;;
59876;SDS011;45749;51.140;17.184;2023-04-24T10:08:01;8.50;;;5.40;;
59876;SDS011;45749;51.140;17.184;2023-04-24T10:10:34;5.75;;;5.10;;
59876;SDS011;45749;51.140;17.184;2023-04-24T10:13:04;6.20;;;5.55;;
59876;SDS011;45749;51.140;17.184;2023-04-24T10:15:29;6.35;;;5.50;;
59876;SDS011;45749;51.140;17.184;2023-04-24T10:17:55;7.35;;;4.88;;
59876;SDS011;45749;51.140;17.184;2023-04-24T10:20:27;6.78;;;5.25;;
59876;SDS011;45749;51.140;17.184;2023-04-24T10:22:56;6.25;;;4.35;;
59876;SDS011;45749;51.140;17.184;2023-04-24T10:25:24;4.95;;;4.28;;
59876;SDS011;45749;51.140;17.184;2023-04-24T10:27:52;4.38;;;3.60;;
59876;SDS011;45749;51.140;17.184;2023-04-24T10:30:19;8.00;;;4.53;;
59876;SDS011;45749;51.140;17.184;2023-04-24T10:32:45;5.25;;;4.68;;
59876;SDS011;45749;51.140;17.184;2023-04-24T10:35:14;5.10;;;4.50;;
59876;SDS011;45749;51.140;17.184;2023-04-24T10:37:45;6.40;;;4.57;;
59876;SDS011;45749;51.140;17.184;2023-04-24T10:40:16;9.50;;;4.72;;
59876;SDS011;45749;51.140;17.184;2023-04-24T10:42:43;6.32;;;4.88;;
59876;SDS011;45749;51.140;17.184;2023-04-24T10:45:16;7.22;;;5.10;;
59876;SDS011;45749;51.140;17.184;2023-04-24T10:47:50;7.20;;;4.70;;
59876;SDS011;45749;51.140;17.184;2023-04-24T10:52:53;7.60;;;5.10;;
59876;SDS011;45749;51.140;17.184;2023-04-24T10:55:39;5.30;;;4.80;;
59876;SDS011;45749;51.140;17.184;2023-04-24T10:58:07;6.20;;;4.90;;
59876;SDS011;45749;51.140;17.184;2023-04-24T11:00:32;7.03;;;5.22;;
59876;SDS011;45749;51.140;17.184;2023-04-24T11:03:04;6.15;;;5.05;;
59876;SDS011;45749;51.140;17.184;2023-04-24T11:08:23;8.40;;;5.25;;
59876;SDS011;45749;51.140;17.184;2023-04-24T11:10:56;18.23;;;5.43;;
59876;SDS011;45749;51.140;17.184;2023-04-24T11:13:24;6.55;;;4.80;;
59876;SDS011;45749;51.140;17.184;2023-04-24T11:18:51;5.38;;;4.82;;
59876;SDS011;45749;51.140;17.184;2023-04-24T11:21:22;5.75;;;4.60;;
59876;SDS011;45749;51.140;17.184;2023-04-24T11:23:47;6.60;;;5.28;;
59876;SDS011;45749;51.140;17.184;2023-04-24T11:26:14;5.97;;;5.22;;
59876;SDS011;45749;51.140;17.184;2023-04-24T11:28:48;5.90;;;5.00;;
59876;SDS011;45749;51.140;17.184;2023-04-24T11:34:11;6.00;;;5.22;;
59876;SDS011;45749;51.140;17.184;2023-04-24T11:36:39;6.93;;;4.65;;
59876;SDS011;45749;51.140;17.184;2023-04-24T11:39:07;5.22;;;4.38;;
59876;SDS011;45749;51.140;17.184;2023-04-24T11:41:33;5.68;;;4.45;;
59876;SDS011;45749;51.140;17.184;2023-04-24T11:44:00;7.05;;;4.93;;
59876;SDS011;45749;51.140;17.184;2023-04-24T11:46:29;5.50;;;4.47;;
59876;SDS011;45749;51.140;17.184;2023-04-24T11:48:56;10.70;;;5.72;;
59876;SDS011;45749;51.140;17.184;2023-04-24T11:51:23;5.72;;;4.63;;
59876;SDS011;45749;51.140;17.184;2023-04-24T11:53:50;5.55;;;5.05;;
59876;SDS011;45749;51.140;17.184;2023-04-24T11:56:18;10.05;;;5.47;;
59876;SDS011;45749;51.140;17.184;2023-04-24T11:58:44;5.28;;;4.68;;
59876;SDS011;45749;51.140;17.184;2023-04-24T12:01:10;7.28;;;4.68;;
59876;SDS011;45749;51.140;17.184;2023-04-24T12:03:36;6.53;;;5.13;;
59876;SDS011;45749;51.140;17.184;2023-04-24T12:06:07;6.53;;;4.50;;
59876;SDS011;45749;51.140;17.184;2023-04-24T12:08:34;9.48;;;5.05;;
59876;SDS011;45749;51.140;17.184;2023-04-24T12:11:04;6.90;;;5.07;;
59876;SDS011;45749;51.140;17.184;2023-04-24T12:13:32;7.32;;;5.47;;
59876;SDS011;45749;51.140;17.184;2023-04-24T12:15:58;5.88;;;5.22;;
59876;SDS011;45749;51.140;17.184;2023-04-24T12:18:24;7.13;;;5.55;;
59876;SDS011;45749;51.140;17.184;2023-04-24T12:20:50;8.38;;;4.65;;
59876;SDS011;45749;51.140;17.184;2023-04-24T12:23:16;4.97;;;4.45;;
59876;SDS011;45749;51.140;17.184;2023-04-24T12:25:42;5.15;;;4.63;;
59876;SDS011;45749;51.140;17.184;2023-04-24T12:28:12;8.75;;;4.45;;
59876;SDS011;45749;51.140;17.184;2023-04-24T12:30:40;7.97;;;4.30;;
59876;SDS011;45749;51.140;17.184;2023-04-24T12:33:09;7.30;;;5.27;;
59876;SDS011;45749;51.140;17.184;2023-04-24T12:35:34;7.00;;;4.68;;
59876;SDS011;45749;51.140;17.184;2023-04-24T12:38:07;7.28;;;5.13;;
59876;SDS011;45749;51.140;17.184;2023-04-24T12:40:36;7.75;;;5.38;;
59876;SDS011;45749;51.140;17.184;2023-04-24T12:43:02;7.18;;;5.03;;
59876;SDS011;45749;51.140;17.184;2023-04-24T12:45:49;7.20;;;5.35;;
59876;SDS011;45749;51.140;17.184;2023-04-24T12:48:14;6.30;;;5.35;;
59876;SDS011;45749;51.140;17.184;2023-04-24T12:50:40;6.80;;;5.30;;
59876;SDS011;45749;51.140;17.184;2023-04-24T12:53:06;5.90;;;5.18;;
59876;SDS011;45749;51.140;17.184;2023-04-24T12:55:33;7.53;;;5.07;;
59876;SDS011;45749;51.140;17.184;2023-04-24T12:57:59;6.18;;;5.00;;
59876;SDS011;45749;51.140;17.184;2023-04-24T13:00:24;7.05;;;5.65;;
59876;SDS011;45749;51.140;17.184;2023-04-24T13:02:50;6.82;;;5.40;;
59876;SDS011;45749;51.140;17.184;2023-04-24T13:05:16;7.80;;;5.80;;
59876;SDS011;45749;51.140;17.184;2023-04-24T13:07:41;12.65;;;6.32;;
59876;SDS011;45749;51.140;17.184;2023-04-24T13:10:06;8.90;;;5.68;;
59876;SDS011;45749;51.140;17.184;2023-04-24T13:12:32;7.30;;;5.70;;
59876;SDS011;45749;51.140;17.184;2023-04-24T13:14:58;9.00;;;5.30;;
59876;SDS011;45749;51.140;17.184;2023-04-24T13:17:23;7.75;;;5.90;;
59876;SDS011;45749;51.140;17.184;2023-04-24T13:19:50;8.45;;;5.70;;
59876;SDS011;45749;51.140;17.184;2023-04-24T13:22:16;9.75;;;6.05;;
59876;SDS011;45749;51.140;17.184;2023-04-24T13:24:44;8.10;;;5.85;;
59876;SDS011;45749;51.140;17.184;2023-04-24T13:27:09;9.75;;;7.20;;
59876;SDS011;45749;51.140;17.184;2023-04-24T13:29:36;7.38;;;5.88;;
59876;SDS011;45749;51.140;17.184;2023-04-24T13:32:02;7.10;;;4.85;;
59876;SDS011;45749;51.140;17.184;2023-04-24T13:34:28;6.88;;;4.65;;
59876;SDS011;45749;51.140;17.184;2023-04-24T13:36:54;6.20;;;3.10;;
59876;SDS011;45749;51.140;17.184;2023-04-24T13:39:21;3.30;;;2.35;;
59876;SDS011;45749;51.140;17.184;2023-04-24T13:41:47;3.90;;;1.90;;
59876;SDS011;45749;51.140;17.184;2023-04-24T13:44:15;2.40;;;1.80;;
59876;SDS011;45749;51.140;17.184;2023-04-24T13:46:43;2.55;;;1.77;;
59876;SDS011;45749;51.140;17.184;2023-04-24T13:49:10;3.67;;;2.08;;
59876;SDS011;45749;51.140;17.184;2023-04-24T13:51:36;3.03;;;1.70;;
59876;SDS011;45749;51.140;17.184;2023-04-24T13:54:02;5.60;;;1.55;;
59876;SDS011;45749;51.140;17.184;2023-04-24T13:56:27;2.00;;;1.27;;
59876;SDS011;45749;51.140;17.184;2023-04-24T13:58:53;3.33;;;1.35;;
59876;SDS011;45749;51.140;17.184;2023-04-24T14:01:19;8.05;;;4.28;;
59876;SDS011;45749;51.140;17.184;2023-04-24T14:03:46;15.88;;;8.13;;
59876;SDS011;45749;51.140;17.184;2023-04-24T14:06:11;13.82;;;7.40;;
59876;SDS011;45749;51.140;17.184;2023-04-24T14:08:37;10.40;;;5.65;;
59876;SDS011;45749;51.140;17.184;2023-04-24T14:11:02;9.05;;;7.78;;
59876;SDS011;45749;51.140;17.184;2023-04-24T14:13:28;5.00;;;2.65;;
59876;SDS011;45749;51.140;17.184;2023-04-24T14:15:54;13.20;;;6.40;;
59876;SDS011;45749;51.140;17.184;2023-04-24T14:18:19;17.25;;;9.10;;
59876;SDS011;45749;51.140;17.184;2023-04-24T14:20:45;9.90;;;5.03;;
59876;SDS011;45749;51.140;17.184;2023-04-24T14:23:11;8.40;;;4.70;;
59876;SDS011;45749;51.140;17.184;2023-04-24T14:25:36;8.02;;;3.80;;
59876;SDS011;45749;51.140;17.184;2023-04-24T14:28:02;7.75;;;3.25;;
59876;SDS011;45749;51.140;17.184;2023-04-24T14:30:27;6.53;;;3.45;;
59876;SDS011;45749;51.140;17.184;2023-04-24T14:32:54;5.95;;;3.28;;
59876;SDS011;45749;51.140;17.184;2023-04-24T14:35:19;4.22;;;2.90;;